Erie, CO (80516)

1:29 PM MDT on July 06, 2015 (GMT -0600)
Brownsville | | Change Station
CLOSE
Current Station
Personal Weather Station
Location: Lafayette, CO
Elevation: 5115 ft
Nearby Weather Stations

Elev 5115 ft 40.05 °N, 105.08 °W | Updated 29 minutes ago

Overcast
Overcast
64.2 °F
Feels Like 64.2 °F
N
2.0
Wind Variable Wind from NNW
Gusts 8.0 mph

Today
High -- | Low -- °F
--% Chance of Precip.
Yesterday
High -- | Low -- °F
Precip. -- in
5:37 AM 8:32 PM
Waning Gibbous, 73% visible
Pressure 30.28 in
Visibility 10.0 miles
Clouds Scattered Clouds 1700 ft
Overcast 2600 ft
Dew Point 59 °F
Humidity 83%
Rainfall 0.07 in
Snow Depth Not available.
UV 4 out of 12
Pollen .60 out of 12
Air Quality Not available.
Flu Activity Not available.
METAR KEIK 061914Z AUTO 04008KT 10SM SCT017 OVC026 18/14 A3028 RMK AO2 T01750144

More Conditions Fewer Conditions

Pressure 30.28 in
Visibility 10.0 miles
Clouds Scattered Clouds 1700 ft
Overcast 2600 ft
Dew Point 59 °F
Humidity 83%
Rainfall 0.07 in
Snow Depth Not available.
UV 4 out of 12
Pollen .60 out of 12
Air Quality Not available.
Flu Activity Not available.
METAR KEIK 061914Z AUTO 04008KT 10SM SCT017 OVC026 18/14 A3028 RMK AO2 T01750144

More Conditions Fewer Conditions

10-Day Weather Forecast

×

Almanac

Astronomy

Jul. 06, 2015 Rise Set
Actual Time
Civil Twilight
Nautical Twilight
Astronomical Twilight
Moon
Length of Visible Light
Length of Day
Tomorrow will be .
, % of the Moon is Illuminated

Today's Extremes

State Highs State Lows

Community

WunderPhotos

Upload Photos

1,835,621 photos uploaded!

WunderBlogs® & News

Nearby

Air Quality

  Air Quality AQ Index Pollutant
Not available.

Snow Depth

Station Depth Elevation

Earthquake Activity

City Distance Mag. Time & Date
Minimum magnitude displayed is 2.5.

Coastal Water Temperatures

Place Temperature

Stations

Nearby Weather Stations

Station Location Temp. Windchill Dew Point Humidity Wind Precip. Elev Updated Type